Time;durP1;ratioP1;P1;durP2;ratioP2;P2;SDS_P1;SDS_P2;PMS_P1;PMS_P2;Temp;Humidity;BMP_temperature;BMP_pressure;BME280_temperature;BME280_humidity;BME280_pressure;Samples;Min_cycle;Max_cycle;Signal;HPM_P1;HPM_P2
2022/04/11 00:00:57;;;;;;;4.60;2.30;;;2.50;99.90;;;;;;4117996;28;20467;-81
2022/04/11 00:02:58;;;;;;;5.00;2.57;;;2.50;99.90;;;;;;4118137;28;20470;-81
2022/04/11 00:05:00;;;;;;;5.33;1.97;;;2.60;99.90;;;;;;4118722;28;20455;-80
2022/04/11 00:07:05;;;;;;;6.97;2.70;;;2.60;99.90;;;;;;4114987;28;20553;-81
2022/04/11 00:09:08;;;;;;;4.73;2.20;;;2.50;99.90;;;;;;4117448;28;20440;-81
2022/04/11 00:11:12;;;;;;;4.70;2.30;;;2.50;99.90;;;;;;4117793;28;20803;-81
2022/04/11 00:13:14;;;;;;;3.50;2.03;;;2.50;99.90;;;;;;4117041;28;21035;-81
2022/04/11 00:15:18;;;;;;;3.67;2.13;;;2.50;99.90;;;;;;4117092;28;20463;-81
2022/04/11 00:17:20;;;;;;;5.23;2.20;;;2.50;99.90;;;;;;4115958;28;20501;-81
2022/04/11 00:19:22;;;;;;;3.13;2.00;;;2.50;99.90;;;;;;4110156;28;20467;-81
2022/04/11 00:21:24;;;;;;;7.20;2.17;;;2.50;99.90;;;;;;4116746;28;20472;-81
2022/04/11 00:23:25;;;;;;;2.90;2.13;;;2.60;99.90;;;;;;4117809;28;20495;-81
2022/04/11 00:25:28;;;;;;;4.63;2.10;;;2.50;99.90;;;;;;4111039;28;20486;-81
2022/04/11 00:27:30;;;;;;;7.73;2.17;;;2.50;99.90;;;;;;4108849;28;20456;-81
2022/04/11 00:29:32;;;;;;;5.70;2.10;;;2.70;99.90;;;;;;4106751;28;20537;-81
2022/04/11 00:31:34;;;;;;;3.30;1.70;;;2.50;99.90;;;;;;4118317;28;20545;-81
2022/04/11 00:33:36;;;;;;;4.57;1.80;;;2.50;99.90;;;;;;4117534;28;20497;-82
2022/04/11 00:35:39;;;;;;;3.93;1.80;;;2.50;99.90;;;;;;4104017;28;20486;-81
2022/04/11 00:37:41;;;;;;;4.30;1.60;;;2.50;99.90;;;;;;4111294;28;20464;-82
2022/04/11 00:39:43;;;;;;;5.97;2.07;;;2.50;99.90;;;;;;4107075;28;20464;-81
2022/04/11 00:41:46;;;;;;;3.63;1.90;;;2.50;99.90;;;;;;4108481;28;20555;-81
2022/04/11 00:43:48;;;;;;;6.07;2.07;;;2.50;99.90;;;;;;4116046;28;20870;-82
2022/04/11 00:45:50;;;;;;;3.77;1.70;;;2.50;99.90;;;;;;4115735;28;20471;-81
2022/04/11 00:47:51;;;;;;;4.83;2.03;;;2.70;99.90;;;;;;4116340;28;20483;-81
2022/04/11 00:49:56;;;;;;;4.63;2.33;;;2.40;99.90;;;;;;4114589;28;20514;-81
2022/04/11 00:51:58;;;;;;;4.80;2.40;;;2.40;99.90;;;;;;4116662;28;20463;-82
2022/04/11 00:54:01;;;;;;;7.17;2.27;;;2.50;99.90;;;;;;4116141;28;20490;-81
2022/04/11 00:56:04;;;;;;;5.23;2.23;;;2.50;99.90;;;;;;4116513;28;20879;-82
2022/04/11 00:58:07;;;;;;;4.07;2.40;;;2.40;99.90;;;;;;4114587;28;20476;-82
2022/04/11 01:00:13;;;;;;;4.77;2.30;;;2.40;99.90;;;;;;4110281;28;20474;-82
2022/04/11 01:02:14;;;;;;;4.10;2.03;;;2.40;99.90;;;;;;4114807;28;20473;-81
2022/04/11 01:04:24;;;;;;;3.93;2.07;;;2.40;99.90;;;;;;4115938;28;20467;-82
2022/04/11 01:06:26;;;;;;;3.27;2.17;;;2.60;99.90;;;;;;4115701;28;20451;-81
2022/04/11 01:08:28;;;;;;;4.70;2.17;;;2.40;99.90;;;;;;4111855;28;20488;-82
2022/04/11 01:10:30;;;;;;;5.00;2.03;;;2.40;99.90;;;;;;4117239;28;20510;-81
2022/04/11 01:12:33;;;;;;;3.13;1.73;;;2.30;99.90;;;;;;4113959;28;20496;-81
2022/04/11 01:14:36;;;;;;;6.20;2.07;;;2.30;99.90;;;;;;4116042;28;20495;-81
2022/04/11 01:16:38;;;;;;;7.37;2.07;;;2.30;99.90;;;;;;4109039;28;20464;-81
2022/04/11 01:18:46;;;;;;;3.77;1.90;;;2.20;99.90;;;;;;4114881;28;20452;-82
2022/04/11 01:20:47;;;;;;;5.03;1.90;;;2.20;99.90;;;;;;4115619;28;20905;-82
2022/04/11 01:22:51;;;;;;;4.33;2.00;;;2.20;99.90;;;;;;4116723;28;20488;-81
2022/04/11 01:24:52;;;;;;;3.03;2.03;;;2.20;99.90;;;;;;4111375;28;20475;-82
2022/04/11 01:26:54;;;;;;;4.60;2.50;;;2.10;99.90;;;;;;4114130;28;20489;-81
2022/04/11 01:28:57;;;;;;;4.57;1.90;;;2.20;99.90;;;;;;4116855;28;20954;-81
2022/04/11 01:30:58;;;;;;;5.97;2.13;;;2.10;99.90;;;;;;4116490;28;20468;-81
2022/04/11 01:33:00;;;;;;;6.30;2.50;;;2.10;99.90;;;;;;4113957;28;20988;-81
2022/04/11 01:35:03;;;;;;;5.23;2.47;;;1.90;99.90;;;;;;4110314;28;20491;-81
2022/04/11 01:37:09;;;;;;;7.97;2.40;;;2.00;99.90;;;;;;4113372;28;20453;-81
2022/04/11 01:39:12;;;;;;;5.90;1.90;;;2.00;99.90;;;;;;4113728;28;20487;-81
2022/04/11 01:41:14;;;;;;;6.47;2.30;;;2.00;99.90;;;;;;4117130;28;20467;-82
2022/04/11 01:43:16;;;;;;;4.50;2.30;;;2.50;99.90;;;;;;4116185;28;20507;-82
2022/04/11 01:45:18;;;;;;;5.27;2.27;;;2.00;99.90;;;;;;4116954;28;20486;-82
2022/04/11 01:47:19;;;;;;;4.40;2.17;;;1.90;99.90;;;;;;4115033;28;20538;-82
2022/04/11 01:49:21;;;;;;;3.60;2.40;;;2.00;99.90;;;;;;4104329;28;20563;-81
2022/04/11 01:51:23;;;;;;;5.93;2.00;;;1.90;99.90;;;;;;4107532;28;20462;-81
2022/04/11 01:53:25;;;;;;;4.97;2.40;;;2.00;99.90;;;;;;4116311;28;20902;-81
2022/04/11 01:55:28;;;;;;;5.40;2.40;;;2.00;99.90;;;;;;4114774;28;20585;-81
2022/04/11 01:57:30;;;;;;;4.33;2.37;;;2.00;99.90;;;;;;4115162;28;20514;-81
2022/04/11 01:59:32;;;;;;;4.40;2.30;;;1.90;99.90;;;;;;4105038;28;20463;-81
2022/04/11 02:01:34;;;;;;;4.27;2.40;;;2.00;99.90;;;;;;4112412;28;20506;-81
2022/04/11 02:03:36;;;;;;;4.60;2.10;;;2.00;99.90;;;;;;4115905;28;20843;-81
2022/04/11 02:05:39;;;;;;;3.23;2.03;;;2.30;99.90;;;;;;4109302;28;20473;-81
2022/04/11 02:07:41;;;;;;;4.70;2.07;;;2.10;99.90;;;;;;4111219;28;20838;-81
2022/04/11 02:09:43;;;;;;;3.80;2.13;;;2.00;99.90;;;;;;4115830;28;20470;-81
2022/04/11 02:11:46;;;;;;;4.17;1.90;;;2.00;99.90;;;;;;4116239;28;20455;-81
2022/04/11 02:13:48;;;;;;;8.60;2.20;;;2.00;99.90;;;;;;4116219;28;20567;-81
2022/04/11 02:15:50;;;;;;;4.73;2.30;;;2.00;99.90;;;;;;4116712;28;20467;-81
2022/04/11 02:17:51;;;;;;;4.43;2.67;;;2.50;99.90;;;;;;4114569;28;20473;-81
2022/04/11 02:19:53;;;;;;;7.13;2.40;;;2.00;99.90;;;;;;4115287;28;20488;-81
2022/04/11 02:21:55;;;;;;;5.53;2.60;;;2.00;99.90;;;;;;4116433;28;20473;-81
2022/04/11 02:23:57;;;;;;;5.23;2.20;;;2.00;99.90;;;;;;4116420;28;20486;-81
2022/04/11 02:25:58;;;;;;;5.73;2.47;;;1.90;99.90;;;;;;4112795;28;21055;-81
2022/04/11 02:28:01;;;;;;;4.33;2.33;;;1.90;99.90;;;;;;4116228;28;20467;-81
2022/04/11 02:30:04;;;;;;;6.27;2.60;;;1.90;99.90;;;;;;4111296;28;21035;-81
2022/04/11 02:32:07;;;;;;;8.23;2.53;;;1.90;99.90;;;;;;4099857;28;20447;-81
2022/04/11 02:34:09;;;;;;;5.77;2.53;;;1.90;99.90;;;;;;4099030;28;20527;-81
2022/04/11 02:36:11;;;;;;;4.43;2.43;;;1.90;99.90;;;;;;4103628;28;20472;-81
2022/04/11 02:38:13;;;;;;;6.87;2.43;;;1.90;99.90;;;;;;4113868;28;20467;-81
2022/04/11 02:40:16;;;;;;;4.40;2.10;;;1.90;99.90;;;;;;4112513;28;20463;-81
2022/04/11 02:42:22;;;;;;;5.20;2.33;;;2.20;99.90;;;;;;4115783;28;20467;-81
2022/04/11 02:44:25;;;;;;;5.70;2.53;;;2.00;99.90;;;;;;4114665;28;20470;-81
2022/04/11 02:46:27;;;;;;;7.77;2.40;;;1.90;99.90;;;;;;4113641;28;20468;-81
2022/04/11 02:48:29;;;;;;;6.70;2.97;;;2.00;99.90;;;;;;4115609;28;20470;-81
2022/04/11 02:50:30;;;;;;;4.43;2.60;;;2.00;99.90;;;;;;4113944;28;20478;-81
2022/04/11 02:52:32;;;;;;;3.87;2.03;;;2.00;99.90;;;;;;4114987;28;20851;-81
2022/04/11 02:54:34;;;;;;;5.17;2.40;;;2.00;99.90;;;;;;4105265;28;20872;-81
2022/04/11 02:56:36;;;;;;;7.70;2.50;;;2.00;99.90;;;;;;4105892;28;20567;-81
2022/04/11 02:58:37;;;;;;;3.90;2.10;;;2.00;99.90;;;;;;4113194;28;20465;-82
2022/04/11 03:00:41;;;;;;;5.33;2.80;;;2.00;99.90;;;;;;4115596;28;20490;-81
2022/04/11 03:02:43;;;;;;;5.57;2.60;;;2.00;99.90;;;;;;4115541;28;20498;-81
2022/04/11 03:04:44;;;;;;;5.20;2.83;;;1.90;99.90;;;;;;4113032;28;20463;-81
2022/04/11 03:06:46;;;;;;;5.77;2.40;;;1.90;99.90;;;;;;4115625;28;20474;-81
2022/04/11 03:08:48;;;;;;;9.30;2.97;;;1.90;99.90;;;;;;4114152;28;20473;-82
2022/04/11 03:10:50;;;;;;;7.00;2.40;;;1.90;99.90;;;;;;4117040;28;20614;-81
2022/04/11 03:12:51;;;;;;;6.80;2.27;;;1.90;99.90;;;;;;4101409;28;20502;-81
2022/04/11 03:14:53;;;;;;;5.07;2.37;;;1.80;99.90;;;;;;4102755;28;20491;-81
2022/04/11 03:16:56;;;;;;;7.90;2.20;;;1.80;99.90;;;;;;4108581;28;20474;-81
2022/04/11 03:18:58;;;;;;;4.70;2.23;;;1.90;99.90;;;;;;4118646;28;20960;-81
2022/04/11 03:21:00;;;;;;;4.37;2.30;;;1.80;99.90;;;;;;4115074;28;20529;-81
2022/04/11 03:23:02;;;;;;;4.30;2.60;;;1.80;99.90;;;;;;4119655;28;20499;-81
2022/04/11 03:25:05;;;;;;;5.40;2.63;;;1.80;99.90;;;;;;4120018;28;20460;-81
2022/04/11 03:27:07;;;;;;;5.27;2.97;;;1.70;99.90;;;;;;4112661;28;20489;-80
2022/04/11 03:29:09;;;;;;;6.53;2.97;;;1.90;99.90;;;;;;4119162;28;20466;-81
2022/04/11 03:31:12;;;;;;;6.47;2.77;;;1.70;99.90;;;;;;4122415;28;20942;-81
2022/04/11 03:33:15;;;;;;;6.13;2.53;;;1.70;99.90;;;;;;4123199;28;20486;-81
2022/04/11 03:35:16;;;;;;;5.20;2.80;;;1.70;99.90;;;;;;4120321;28;20563;-81
2022/04/11 03:37:18;;;;;;;5.10;2.93;;;1.70;99.90;;;;;;4112453;28;20488;-81
2022/04/11 03:39:20;;;;;;;4.90;2.63;;;1.70;99.90;;;;;;4104523;28;20469;-82
2022/04/11 03:41:22;;;;;;;8.67;3.00;;;1.60;99.90;;;;;;4103043;28;20490;-81
2022/04/11 03:43:24;;;;;;;5.10;3.10;;;1.60;99.90;;;;;;4109110;28;20474;-81
2022/04/11 03:45:26;;;;;;;7.57;3.33;;;1.60;99.90;;;;;;4101507;28;20455;-81
2022/04/11 03:47:27;;;;;;;8.43;2.93;;;1.50;99.90;;;;;;4102560;28;20478;-81
2022/04/11 03:49:31;;;;;;;4.90;2.67;;;1.50;99.90;;;;;;4112419;28;20465;-81
2022/04/11 03:51:33;;;;;;;7.97;3.20;;;1.50;99.90;;;;;;4102342;29;20546;-81
2022/04/11 03:53:35;;;;;;;8.70;2.90;;;1.50;99.90;;;;;;4101979;29;20844;-81
2022/04/11 03:55:38;;;;;;;5.17;2.50;;;1.50;99.90;;;;;;4101684;28;20516;-81
2022/04/11 03:57:40;;;;;;;8.17;3.20;;;1.40;99.90;;;;;;4112409;28;20473;-82
2022/04/11 03:59:41;;;;;;;8.23;3.03;;;1.40;99.90;;;;;;4120638;28;20461;-82
2022/04/11 04:01:43;;;;;;;9.17;2.97;;;1.40;99.90;;;;;;4119882;28;20475;-82
2022/04/11 04:03:45;;;;;;;4.90;2.73;;;1.40;99.90;;;;;;4114137;28;20505;-81
2022/04/11 04:05:49;;;;;;;6.00;2.83;;;1.40;99.90;;;;;;4114365;28;20486;-81
2022/04/11 04:07:50;;;;;;;9.73;2.90;;;1.40;99.90;;;;;;4122951;28;20473;-81
2022/04/11 04:09:52;;;;;;;7.47;2.90;;;1.30;99.90;;;;;;4123304;28;20485;-80
2022/04/11 04:11:54;;;;;;;5.97;3.03;;;1.30;99.90;;;;;;4123373;28;20462;-81
2022/04/11 04:14:03;;;;;;;5.23;2.40;;;1.30;99.90;;;;;;4108685;28;20538;-81
2022/04/11 04:16:06;;;;;;;9.57;3.10;;;1.30;99.90;;;;;;4116289;28;20520;-81
2022/04/11 04:18:12;;;;;;;5.47;2.90;;;1.60;99.90;;;;;;4122129;28;20491;-81
2022/04/11 04:20:13;;;;;;;11.37;3.07;;;1.30;99.90;;;;;;4117061;28;20474;-80
2022/04/11 04:22:16;;;;;;;7.13;3.23;;;1.20;99.90;;;;;;4111124;28;20474;-81
2022/04/11 04:24:22;;;;;;;7.33;2.80;;;1.20;99.90;;;;;;4102330;29;20467;-80
2022/04/11 04:26:24;;;;;;;11.13;3.00;;;1.20;99.90;;;;;;4110119;28;20478;-80
2022/04/11 04:28:26;;;;;;;5.70;3.03;;;1.20;99.90;;;;;;4117109;28;20449;-80
2022/04/11 04:30:30;;;;;;;6.20;3.17;;;1.20;99.90;;;;;;4112839;28;20470;-81
2022/04/11 04:32:31;;;;;;;4.57;2.67;;;1.20;99.90;;;;;;4117009;28;20465;-81
2022/04/11 04:34:33;;;;;;;5.57;2.97;;;1.20;99.90;;;;;;4117232;28;20524;-81
2022/04/11 04:36:35;;;;;;;6.10;2.97;;;1.20;99.90;;;;;;4116803;28;20473;-81
2022/04/11 04:38:41;;;;;;;5.50;2.93;;;1.80;99.90;;;;;;4113774;28;20565;-81
2022/04/11 04:40:44;;;;;;;6.17;3.17;;;1.10;99.90;;;;;;4116316;28;20900;-81
2022/04/11 04:42:46;;;;;;;9.17;3.50;;;1.10;99.90;;;;;;4115943;28;20575;-81
2022/04/11 04:44:48;;;;;;;6.80;3.20;;;1.10;99.90;;;;;;4117491;28;20465;-81
2022/04/11 04:46:50;;;;;;;9.53;3.90;;;1.10;99.90;;;;;;4116596;28;20466;-81
2022/04/11 04:48:54;;;;;;;6.70;3.00;;;1.10;99.90;;;;;;4116035;28;20477;-81
2022/04/11 04:50:56;;;;;;;7.83;3.37;;;1.40;99.90;;;;;;4103579;28;20469;-81
2022/04/11 04:52:59;;;;;;;7.23;3.60;;;1.10;99.90;;;;;;4102004;29;20558;-81
2022/04/11 04:55:02;;;;;;;7.27;3.17;;;1.10;99.90;;;;;;4104450;28;20496;-81
2022/04/11 04:57:05;;;;;;;5.97;3.20;;;1.10;99.90;;;;;;4112311;28;20917;-81
2022/04/11 04:59:07;;;;;;;6.47;3.00;;;1.00;99.90;;;;;;4116144;28;20469;-81
2022/04/11 05:01:08;;;;;;;5.53;3.10;;;1.00;99.90;;;;;;4117114;28;20472;-81
2022/04/11 05:03:11;;;;;;;10.13;3.17;;;1.00;99.90;;;;;;4116785;28;20496;-80
2022/04/11 05:05:17;;;;;;;12.07;5.40;;;1.00;99.90;;;;;;4112599;28;20466;-81
2022/04/11 05:07:21;;;;;;;13.43;4.93;;;1.00;99.90;;;;;;4111285;28;20472;-81
2022/04/11 05:09:23;;;;;;;7.97;3.47;;;1.00;99.90;;;;;;4116343;28;20458;-81
2022/04/11 05:11:26;;;;;;;6.83;3.60;;;1.00;99.90;;;;;;4116820;28;20469;-81
2022/04/11 05:13:28;;;;;;;7.13;3.23;;;1.00;99.90;;;;;;4113564;28;20485;-81
2022/04/11 05:15:30;;;;;;;7.80;3.40;;;1.10;99.90;;;;;;4111654;28;20493;-81
2022/04/11 05:17:32;;;;;;;6.60;3.27;;;1.10;99.90;;;;;;4117906;28;20461;-80
2022/04/11 05:19:34;;;;;;;5.10;3.10;;;1.10;99.90;;;;;;4118369;28;20445;-80
2022/04/11 05:21:36;;;;;;;7.43;3.23;;;1.10;99.90;;;;;;4116835;28;20483;-81
2022/04/11 05:23:38;;;;;;;7.30;3.40;;;1.10;99.90;;;;;;4114554;28;20536;-80
2022/04/11 05:25:40;;;;;;;8.03;3.80;;;1.10;99.90;;;;;;4102214;28;20465;-81
2022/04/11 05:27:43;;;;;;;6.23;3.63;;;1.10;99.90;;;;;;4101926;28;20446;-81
2022/04/11 05:29:45;;;;;;;7.03;3.27;;;1.10;99.90;;;;;;4112200;28;20505;-81
2022/04/11 05:31:47;;;;;;;8.70;3.80;;;1.10;99.90;;;;;;4114292;28;20509;-80
2022/04/11 05:33:48;;;;;;;7.47;3.93;;;1.10;99.90;;;;;;4116447;28;20484;-81
2022/04/11 05:35:50;;;;;;;11.53;3.37;;;1.20;99.90;;;;;;4118304;28;20481;-80
2022/04/11 05:37:52;;;;;;;8.70;4.00;;;1.20;99.90;;;;;;4117532;28;20450;-80
2022/04/11 05:39:54;;;;;;;6.03;3.50;;;1.20;99.90;;;;;;4103678;28;20474;-81
2022/04/11 05:41:56;;;;;;;7.73;3.40;;;1.20;99.90;;;;;;4114507;28;20990;-81
2022/04/11 05:43:59;;;;;;;6.27;3.67;;;1.20;99.90;;;;;;4116645;28;20492;-80
2022/04/11 05:46:01;;;;;;;5.57;3.20;;;1.20;99.90;;;;;;4115862;28;20821;-80
2022/04/11 05:48:03;;;;;;;8.97;3.77;;;1.20;99.90;;;;;;4117932;28;20449;-80
2022/04/11 05:50:07;;;;;;;8.33;4.10;;;1.20;99.90;;;;;;4112749;28;20474;-80
2022/04/11 05:52:09;;;;;;;6.90;3.83;;;1.20;99.90;;;;;;4110295;28;20469;-81
2022/04/11 05:54:10;;;;;;;8.73;4.20;;;1.30;99.90;;;;;;4111075;28;20457;-81
2022/04/11 05:56:12;;;;;;;12.03;4.17;;;1.30;99.90;;;;;;4101013;28;20545;-81
2022/04/11 05:58:15;;;;;;;7.70;3.73;;;1.40;99.90;;;;;;4110569;28;20480;-81
2022/04/11 06:00:18;;;;;;;9.00;4.13;;;1.40;99.90;;;;;;4116968;28;20474;-81
2022/04/11 06:02:20;;;;;;;7.77;3.67;;;1.50;99.90;;;;;;4118226;28;20477;-81
2022/04/11 06:04:22;;;;;;;10.17;4.40;;;1.50;99.90;;;;;;4119078;28;20473;-80
2022/04/11 06:06:24;;;;;;;10.63;4.40;;;1.50;99.90;;;;;;4104929;28;20469;-81
2022/04/11 06:08:26;;;;;;;6.93;4.03;;;1.50;99.90;;;;;;4108065;28;20475;-81
2022/04/11 06:10:28;;;;;;;9.93;3.63;;;1.60;99.90;;;;;;4100324;29;20546;-82
2022/04/11 06:12:29;;;;;;;7.17;4.13;;;1.90;99.90;;;;;;4110806;28;20462;-81
2022/04/11 06:14:31;;;;;;;8.77;3.90;;;1.60;99.90;;;;;;4115796;28;20485;-82
2022/04/11 06:16:35;;;;;;;9.00;4.13;;;1.70;99.90;;;;;;4113959;28;20505;-81
2022/04/11 06:18:36;;;;;;;7.07;3.93;;;1.80;99.90;;;;;;4116677;28;20821;-81
2022/04/11 06:20:38;;;;;;;13.27;5.67;;;2.10;99.90;;;;;;4116271;28;20893;-81
2022/04/11 06:22:41;;;;;;;13.33;5.50;;;1.80;99.90;;;;;;4117529;28;20483;-81
2022/04/11 06:24:43;;;;;;;12.40;4.17;;;1.80;99.90;;;;;;4115537;28;20504;-81
2022/04/11 06:26:45;;;;;;;8.67;4.47;;;1.90;99.90;;;;;;4114770;28;20489;-80
2022/04/11 06:28:47;;;;;;;8.20;4.03;;;1.90;99.90;;;;;;4117613;28;20545;-81
2022/04/11 06:30:49;;;;;;;7.77;3.83;;;2.00;99.90;;;;;;4120659;28;20460;-80
2022/04/11 06:32:52;;;;;;;7.50;3.90;;;2.20;99.90;;;;;;4121106;28;20491;-80
2022/04/11 06:34:54;;;;;;;12.03;4.13;;;2.10;99.90;;;;;;4112946;28;20803;-81
2022/04/11 06:36:56;;;;;;;8.43;3.87;;;2.10;99.90;;;;;;4118749;28;20565;-81
2022/04/11 06:38:58;;;;;;;6.13;3.40;;;2.30;99.90;;;;;;4110777;28;20538;-80
2022/04/11 06:41:00;;;;;;;6.13;3.53;;;2.30;99.90;;;;;;4100927;28;20487;-81
2022/04/11 06:43:02;;;;;;;5.37;3.47;;;2.40;99.90;;;;;;4106310;28;20498;-81
2022/04/11 06:45:05;;;;;;;6.53;3.60;;;2.40;99.90;;;;;;4115415;28;21045;-81
2022/04/11 06:47:08;;;;;;;6.50;3.77;;;2.50;99.90;;;;;;4109089;28;20482;-81
2022/04/11 06:49:11;;;;;;;7.53;3.60;;;2.50;99.90;;;;;;4099446;28;20523;-82
2022/04/11 06:51:13;;;;;;;9.13;3.80;;;2.50;99.90;;;;;;4113712;28;20538;-81
2022/04/11 06:53:15;;;;;;;9.73;4.00;;;2.60;99.90;;;;;;4116308;28;20897;-81
2022/04/11 06:55:17;;;;;;;7.17;4.03;;;2.70;99.90;;;;;;4114928;28;20486;-82
2022/04/11 06:57:19;;;;;;;6.60;3.53;;;3.00;99.90;;;;;;4112182;28;20496;-81
2022/04/11 06:59:21;;;;;;;5.93;3.37;;;2.90;99.90;;;;;;4107887;28;20907;-82
2022/04/11 07:01:23;;;;;;;6.50;3.10;;;3.00;99.90;;;;;;4115425;28;20449;-82
2022/04/11 07:03:24;;;;;;;8.33;3.70;;;3.10;99.90;;;;;;4116748;28;20821;-81
2022/04/11 07:05:27;;;;;;;11.13;3.50;;;3.20;99.90;;;;;;4102425;28;20560;-81
2022/04/11 07:07:37;;;;;;;5.83;3.30;;;3.20;99.90;;;;;;4109393;28;20459;-81
2022/04/11 07:09:39;;;;;;;9.83;4.23;;;3.30;99.90;;;;;;4110492;28;20821;-81
2022/04/11 07:11:41;;;;;;;20.50;7.43;;;3.30;99.90;;;;;;4116539;28;20471;-81
2022/04/11 07:13:42;;;;;;;10.80;4.43;;;3.30;99.90;;;;;;4110846;28;20504;-81
2022/04/11 07:24:17;;;;;;;10.60;3.60;;;3.60;99.90;;;;;;4042850;29;20472;-81
2022/04/11 07:26:18;;;;;;;8.27;3.20;;;3.70;99.90;;;;;;4095440;28;20525;-81
2022/04/11 07:28:20;;;;;;;5.70;2.97;;;3.70;99.90;;;;;;4119951;28;20470;-82
2022/04/11 07:30:22;;;;;;;9.87;3.30;;;3.80;99.90;;;;;;4123267;28;20787;-81
2022/04/11 07:32:24;;;;;;;7.50;3.33;;;3.90;99.90;;;;;;4114643;28;20457;-81
2022/04/11 07:34:26;;;;;;;7.10;3.13;;;3.90;99.90;;;;;;4108133;28;20470;-81
2022/04/11 07:36:29;;;;;;;8.77;3.30;;;4.00;99.90;;;;;;4108893;28;20484;-81
2022/04/11 07:38:31;;;;;;;8.27;2.70;;;4.00;99.90;;;;;;4115566;28;20473;-81
2022/04/11 07:40:34;;;;;;;8.00;2.90;;;4.10;99.90;;;;;;4117629;28;20831;-81
2022/04/11 07:42:36;;;;;;;7.77;2.80;;;4.50;99.90;;;;;;4118396;28;20512;-81
2022/04/11 07:44:38;;;;;;;4.47;2.83;;;4.20;99.90;;;;;;4112690;28;21207;-81
2022/04/11 07:46:39;;;;;;;5.00;2.70;;;4.70;99.90;;;;;;4113524;28;20523;-81
2022/04/11 07:48:41;;;;;;;5.63;2.60;;;4.40;99.90;;;;;;4118154;28;20464;-81
2022/04/11 07:50:43;;;;;;;5.00;2.10;;;4.50;99.90;;;;;;4118048;28;20985;-81
2022/04/11 07:52:45;;;;;;;3.23;1.80;;;4.50;99.90;;;;;;4118224;28;20990;-81
2022/04/11 07:54:47;;;;;;;7.17;2.00;;;4.60;99.90;;;;;;4112216;28;20481;-81
2022/04/11 07:56:50;;;;;;;5.87;1.90;;;4.70;99.90;;;;;;4103147;28;20904;-81
2022/04/11 07:58:52;;;;;;;4.57;2.23;;;4.80;99.90;;;;;;4105365;28;20951;-82
2022/04/11 08:00:54;;;;;;;5.27;1.80;;;4.90;99.90;;;;;;4116169;28;20815;-81
2022/04/11 08:02:59;;;;;;;3.77;1.50;;;5.00;99.90;;;;;;4118813;28;20488;-82
2022/04/11 08:05:02;;;;;;;4.60;1.43;;;5.20;99.90;;;;;;4110797;28;20988;-82
2022/04/11 08:07:05;;;;;;;4.57;1.77;;;5.20;99.90;;;;;;4116828;28;20535;-82
2022/04/11 08:09:06;;;;;;;4.70;1.90;;;5.40;99.90;;;;;;4119555;28;20460;-81
2022/04/11 08:11:08;;;;;;;3.00;1.90;;;5.40;99.90;;;;;;4120118;28;20872;-81
2022/04/11 08:13:11;;;;;;;7.07;1.80;;;5.50;99.90;;;;;;4115547;28;20491;-81
2022/04/11 08:15:13;;;;;;;3.33;1.50;;;5.50;99.90;;;;;;4117455;28;20543;-81
2022/04/11 08:17:15;;;;;;;1.80;1.30;;;5.60;99.90;;;;;;4119069;28;20484;-81
2022/04/11 08:19:17;;;;;;;4.33;1.70;;;5.70;99.90;;;;;;4120777;28;20469;-81
2022/04/11 08:21:18;;;;;;;4.60;1.70;;;5.80;99.90;;;;;;4117247;28;20464;-81
2022/04/11 08:23:20;;;;;;;5.50;1.93;;;5.80;99.90;;;;;;4118995;28;20496;-81
2022/04/11 08:25:22;;;;;;;6.50;1.80;;;5.90;99.90;;;;;;4114316;28;20469;-80
2022/04/11 08:27:24;;;;;;;3.83;1.80;;;6.00;99.90;;;;;;4109673;28;20461;-81
2022/04/11 08:29:27;;;;;;;4.93;1.70;;;6.00;99.90;;;;;;4107662;28;20500;-81
2022/04/11 08:31:29;;;;;;;4.20;1.50;;;6.20;99.90;;;;;;4115725;28;20482;-81
2022/04/11 08:33:31;;;;;;;3.30;1.53;;;6.20;99.90;;;;;;4116979;28;20497;-81
2022/04/11 08:35:33;;;;;;;3.17;1.70;;;6.20;99.90;;;;;;4119290;28;20980;-81
2022/04/11 08:37:37;;;;;;;6.60;1.90;;;6.30;99.90;;;;;;4118988;28;20496;-81
2022/04/11 08:39:40;;;;;;;6.40;2.23;;;6.70;99.90;;;;;;4112257;28;20465;-81
2022/04/11 08:41:42;;;;;;;2.57;1.70;;;6.40;99.90;;;;;;4120229;28;20472;-81
2022/04/11 08:43:44;;;;;;;4.43;1.80;;;6.40;99.90;;;;;;4118973;28;20569;-82
2022/04/11 08:45:52;;;;;;;3.80;1.90;;;6.50;99.90;;;;;;4118226;28;20488;-82
2022/04/11 08:47:56;;;;;;;3.87;1.50;;;6.60;99.90;;;;;;4116534;28;20469;-82
2022/04/11 08:49:58;;;;;;;3.90;1.60;;;6.60;99.90;;;;;;4114057;28;20478;-81
2022/04/11 08:52:03;;;;;;;5.03;1.53;;;6.70;99.90;;;;;;4101840;29;20469;-81
2022/04/11 08:54:06;;;;;;;7.57;2.03;;;6.70;99.90;;;;;;4102582;29;20525;-82
2022/04/11 08:56:08;;;;;;;3.57;1.60;;;6.80;99.90;;;;;;4110386;28;20478;-81
2022/04/11 08:58:11;;;;;;;3.33;1.33;;;6.90;99.90;;;;;;4113889;28;20470;-82
2022/04/11 09:00:15;;;;;;;4.53;1.70;;;7.00;99.90;;;;;;4121200;28;20466;-82
2022/04/11 09:02:19;;;;;;;6.17;1.60;;;7.10;99.90;;;;;;4124492;28;20472;-82
2022/04/11 09:04:21;;;;;;;2.77;1.40;;;7.10;99.90;;;;;;4124817;28;20529;-82
2022/04/11 09:06:24;;;;;;;5.83;1.50;;;7.20;99.20;;;;;;4127399;28;20458;-82
2022/04/11 09:08:38;;;;;;;2.20;1.30;;;7.30;97.60;;;;;;4119488;28;20531;-81
2022/04/11 09:10:42;;;;;;;3.63;1.30;;;7.40;95.30;;;;;;4131896;28;20473;-81
2022/04/11 09:12:53;;;;;;;5.00;1.40;;;7.50;90.60;;;;;;4130326;28;20513;-81
2022/04/11 09:14:56;;;;;;;5.90;1.40;;;7.60;86.90;;;;;;4127721;28;20442;-81
2022/04/11 09:16:58;;;;;;;3.20;1.80;;;7.60;87.40;;;;;;4129975;28;20578;-81
2022/04/11 09:19:01;;;;;;;6.47;1.50;;;7.70;89.30;;;;;;4119391;28;20498;-81
2022/04/11 09:21:03;;;;;;;4.87;1.10;;;7.80;85.30;;;;;;4132677;28;20443;-81
2022/04/11 09:23:18;;;;;;;5.17;1.33;;;7.80;89.40;;;;;;4129213;28;20823;-82
2022/04/11 09:25:22;;;;;;;6.27;1.70;;;7.90;85.60;;;;;;4125957;28;20510;-81
2022/04/11 09:27:24;;;;;;;5.33;1.43;;;7.90;83.10;;;;;;4117348;28;20474;-81
2022/04/11 09:29:27;;;;;;;4.20;1.70;;;8.30;80.60;;;;;;4111112;28;20467;-81
2022/04/11 09:31:30;;;;;;;2.00;1.00;;;8.20;76.20;;;;;;4118925;28;20477;-81
2022/04/11 09:33:38;;;;;;;2.23;1.20;;;8.30;72.80;;;;;;4121254;28;20479;-81
2022/04/11 09:35:44;;;;;;;6.00;1.23;;;8.50;67.40;;;;;;4122137;28;20475;-81
2022/04/11 09:37:46;;;;;;;2.40;1.30;;;8.70;64.30;;;;;;4118975;28;20907;-81
2022/04/11 09:39:55;;;;;;;3.77;1.13;;;8.80;59.60;;;;;;4117285;28;20499;-81
2022/04/11 09:41:57;;;;;;;3.67;1.27;;;9.30;56.60;;;;;;4117306;28;20463;-82
2022/04/11 09:44:25;;;;;;;5.97;1.53;;;9.10;56.80;;;;;;4119731;28;20508;-81
2022/04/11 09:46:43;;;;;;;9.17;1.47;;;9.30;56.30;;;;;;4113737;28;20457;-81
2022/04/11 09:48:51;;;;;;;2.77;1.37;;;9.50;55.90;;;;;;4111588;28;20468;-81
2022/04/11 09:50:56;;;;;;;5.63;1.30;;;9.60;55.90;;;;;;4105650;28;20472;-81
2022/04/11 09:53:09;;;;;;;1.80;1.00;;;9.70;54.70;;;;;;4101558;29;21033;-81
2022/04/11 09:55:13;;;;;;;5.10;1.40;;;9.80;52.80;;;;;;4107056;28;20300;-81
2022/04/11 09:57:17;;;;;;;6.57;1.40;;;9.90;53.10;;;;;;4112305;28;20248;-81
2022/04/11 09:59:21;;;;;;;7.03;1.37;;;9.90;53.90;;;;;;4117263;28;20304;-81
2022/04/11 10:01:25;;;;;;;3.40;1.43;;;10.00;53.70;;;;;;4117810;28;20246;-80
2022/04/11 10:03:27;;;;;;;3.07;1.10;;;10.10;52.70;;;;;;4118172;28;20272;-81
2022/04/11 10:05:29;;;;;;;3.00;1.07;;;10.20;52.10;;;;;;4111856;28;20213;-81
2022/04/11 10:07:33;;;;;;;4.60;1.30;;;10.20;52.40;;;;;;4120012;28;20217;-81
2022/04/11 10:09:36;;;;;;;5.13;1.20;;;10.40;52.10;;;;;;4119479;28;20288;-80
2022/04/11 10:11:38;;;;;;;6.97;1.40;;;10.30;52.00;;;;;;4119732;28;20212;-81
2022/04/11 10:13:41;;;;;;;3.53;1.40;;;10.40;51.90;;;;;;4115588;28;20241;-81
2022/04/11 10:15:45;;;;;;;3.77;1.40;;;10.40;50.80;;;;;;4123058;28;20652;-81
2022/04/11 10:17:51;;;;;;;4.77;1.33;;;10.50;50.30;;;;;;4125743;28;20236;-81
2022/04/11 10:19:54;;;;;;;4.33;1.00;;;10.60;50.60;;;;;;4126293;28;20209;-81
2022/04/11 10:21:58;;;;;;;4.87;1.13;;;10.80;50.80;;;;;;4123839;28;20264;-81
2022/04/11 10:24:06;;;;;;;4.13;1.40;;;10.60;50.40;;;;;;4121350;28;20288;-81
2022/04/11 10:26:17;;;;;;;3.57;0.97;;;10.60;49.00;;;;;;4122302;28;20245;-81
2022/04/11 10:28:20;;;;;;;4.47;1.30;;;10.50;47.30;;;;;;4122002;28;20223;-82
2022/04/11 10:30:30;;;;;;;4.33;1.40;;;10.70;46.70;;;;;;4115743;28;20224;-81
2022/04/11 10:32:32;;;;;;;2.03;1.00;;;10.60;45.80;;;;;;4117747;28;20211;-82
2022/04/11 10:34:48;;;;;;;5.03;1.20;;;10.60;46.40;;;;;;4123534;28;20323;-81
2022/04/11 10:36:57;;;;;;;8.53;1.97;;;10.70;46.50;;;;;;4118672;28;20297;-80
2022/04/11 10:39:26;;;;;;;9.40;1.10;;;10.60;46.80;;;;;;4111345;28;20213;-80
2022/04/11 10:42:02;;;;;;;3.17;1.03;;;10.60;47.50;;;;;;4116933;28;20288;-79
2022/04/11 10:44:31;;;;;;;3.43;1.10;;;10.70;47.60;;;;;;4115517;28;20312;-80
2022/04/11 10:47:06;;;;;;;1.83;1.00;;;10.70;47.80;;;;;;4114476;28;20296;-80
2022/04/11 10:49:08;;;;;;;1.53;1.00;;;10.80;48.50;;;;;;4101504;28;20286;-81
2022/04/11 10:51:16;;;;;;;5.17;1.40;;;10.90;49.00;;;;;;4101320;28;20298;-80
2022/04/11 10:53:24;;;;;;;5.60;1.20;;;11.00;48.50;;;;;;4116369;28;20716;-80
2022/04/11 10:55:27;;;;;;;3.13;1.10;;;11.00;47.20;;;;;;4115605;28;20205;-80
2022/04/11 10:57:33;;;;;;;2.40;1.30;;;11.10;46.50;;;;;;4114300;28;20725;-80